Kinross Charter Township, MI

7:28 PM EDT on August 01, 2015 (GMT -0400)
Chippewa County International | | Change Station
CLOSE
Current Station
Airport
Location: Chippewa,
Elevation: 801 ft
Nearby Weather Stations

Elev 801 ft 46.25 °N, 84.48 °W | Updated 13 minutes ago

Mostly Cloudy
Mostly Cloudy
70 °F
Feels Like 70 °F
N
5
Wind Variable Wind from South

Today
High -- | Low -- °F
--% Chance of Precip.
Yesterday
High -- | Low -- °F
Precip. -- in
6:19 AM 9:08 PM
Full, 97% visible
Pressure 29.80 in
Visibility 10.0 miles
Clouds Few 6500 ft
Mostly Cloudy 7500 ft
Dew Point 61 °F
Humidity 73%
Rainfall 0.00 in
Snow Depth Not available.
UV 1 out of 12
Pollen 6.50 out of 12
Air Quality Not available.
Flu Activity Not available.
METAR KCIU 012315Z AUTO 19004KT 10SM FEW065 BKN075 21/16 A2980 RMK AO1

More Conditions Fewer Conditions

Pressure 29.80 in
Visibility 10.0 miles
Clouds Few 6500 ft
Mostly Cloudy 7500 ft
Dew Point 61 °F
Humidity 73%
Rainfall 0.00 in
Snow Depth Not available.
UV 1 out of 12
Pollen 6.50 out of 12
Air Quality Not available.
Flu Activity Not available.
METAR KCIU 012315Z AUTO 19004KT 10SM FEW065 BKN075 21/16 A2980 RMK AO1

More Conditions Fewer Conditions

Nowcast | as of 7:00 PM EDT on August 1, 2015

At 8 PM...partly cloudy. Temperature 66. West winds 7 mph. At 10 PM...partly cloudy. Temperature 63. Light winds. At 12 am...partly cloudy. Temperature 60. Light winds. At 2 am...mostly cloudy. Chance of showers and isolated thunderstorms. Temperature 59. Light winds.

×

10-Day Weather Forecast

×

Almanac

Astronomy

Aug. 01, 2015 Rise Set
Actual Time
Civil Twilight
Nautical Twilight
Astronomical Twilight
Moon
Length of Visible Light
Length of Day
Tomorrow will be .
, % of the Moon is Illuminated

Today's Extremes

State Highs State Lows

Community

WunderPhotos

Upload Photos

1,843,087 photos uploaded!

WunderBlogs® & News

Nearby

Air Quality

  Air Quality AQ Index Pollutant
Not available.

Snow Depth

Station Depth Elevation

Earthquake Activity

City Distance Mag. Time & Date
Minimum magnitude displayed is 2.5.

Coastal Water Temperatures

Place Temperature

Stations

Nearby Weather Stations

Station Location Temp. Windchill Dew Point Humidity Wind Precip. Elev Updated Type